createdAt,value
2023-01-08T00:00:22.261Z,4.79
2023-01-08T00:05:23.874Z,4.86
2023-01-08T00:10:25.508Z,4.90
2023-01-08T00:15:27.195Z,4.97
2023-01-08T00:20:29.505Z,5.03
2023-01-08T00:25:32.450Z,5.14
2023-01-08T00:30:34.187Z,5.18
2023-01-08T00:35:37.842Z,5.24
2023-01-08T00:40:40.501Z,5.31
2023-01-08T00:45:42.683Z,5.33
2023-01-08T00:50:44.301Z,5.37
2023-01-08T00:55:46.049Z,5.43
2023-01-08T01:00:47.939Z,5.44
2023-01-08T01:05:50.070Z,5.43
2023-01-08T01:10:51.873Z,5.43
2023-01-08T01:16:00.743Z,5.44
2023-01-08T01:21:02.615Z,5.47
2023-01-08T01:26:04.359Z,5.57
2023-01-08T01:31:06.935Z,5.54
2023-01-08T01:36:09.892Z,5.58
2023-01-08T01:41:26.111Z,5.59
2023-01-08T01:46:39.366Z,5.56
2023-01-08T01:51:49.690Z,5.57
2023-01-08T01:56:51.443Z,5.53
2023-01-08T02:01:54.198Z,5.53
2023-01-08T02:07:20.886Z,5.49
2023-01-08T02:13:21.322Z,5.56
2023-01-08T02:18:44.360Z,5.53
2023-01-08T02:23:47.557Z,5.58
2023-01-08T02:29:06.727Z,5.54
2023-01-08T02:34:09.014Z,5.57
2023-01-08T02:39:20.477Z,5.59
2023-01-08T02:44:35.401Z,5.57
2023-01-08T02:49:42.269Z,5.56
2023-01-08T02:54:46.770Z,5.53
2023-01-08T02:59:50.672Z,5.56
2023-01-08T03:05:03.655Z,5.59
2023-01-08T03:10:05.993Z,5.65
2023-01-08T03:15:11.933Z,5.61
2023-01-08T03:20:20.490Z,5.61
2023-01-08T03:25:25.052Z,5.59
2023-01-08T03:30:30.275Z,5.66
2023-01-08T03:35:33.682Z,5.66
2023-01-08T03:40:39.585Z,5.67
2023-01-08T03:45:51.396Z,5.68
2023-01-08T03:50:53.252Z,5.67
2023-01-08T03:55:56.616Z,5.67
2023-01-08T04:00:58.409Z,5.59
2023-01-08T04:06:00.686Z,5.58
2023-01-08T04:11:02.286Z,5.55
2023-01-08T04:16:05.251Z,5.60
2023-01-08T04:21:06.999Z,5.59
2023-01-08T04:26:09.213Z,5.44
2023-01-08T04:31:10.980Z,5.40
2023-01-08T04:36:12.685Z,5.37
2023-01-08T04:41:14.392Z,5.48
2023-01-08T04:46:16.085Z,5.40
2023-01-08T04:51:17.734Z,5.43
2023-01-08T04:56:19.372Z,5.42
2023-01-08T05:01:24.820Z,5.47
2023-01-08T05:06:28.345Z,5.50
2023-01-08T05:11:30.025Z,5.51
2023-01-08T05:16:32.196Z,5.47
2023-01-08T05:21:34.239Z,5.45
2023-01-08T05:26:36.076Z,5.46
2023-01-08T05:31:37.729Z,5.47
2023-01-08T05:36:39.516Z,5.52
2023-01-08T05:41:41.136Z,5.53
2023-01-08T05:46:42.818Z,5.58
2023-01-08T05:51:44.495Z,5.60
2023-01-08T05:56:46.101Z,5.59
2023-01-08T06:01:47.773Z,5.58
2023-01-08T06:06:49.415Z,5.65
2023-01-08T06:11:51.077Z,5.63
2023-01-08T06:16:52.711Z,5.65
2023-01-08T06:21:54.353Z,5.73
2023-01-08T06:26:56.225Z,5.73
2023-01-08T06:31:57.803Z,5.76
2023-01-08T06:36:59.384Z,5.71
2023-01-08T06:42:01.043Z,5.71
2023-01-08T06:47:02.661Z,5.72
2023-01-08T06:52:04.291Z,5.68
2023-01-08T06:57:05.956Z,5.66
2023-01-08T07:02:13.400Z,5.68
2023-01-08T07:07:15.610Z,5.62
2023-01-08T07:12:17.252Z,5.70
2023-01-08T07:17:19.071Z,5.73
2023-01-08T07:22:22.304Z,5.79
2023-01-08T07:27:23.910Z,5.85
2023-01-08T07:32:25.761Z,5.89
2023-01-08T07:37:27.382Z,5.93
2023-01-08T07:42:29.034Z,5.94
2023-01-08T07:47:30.888Z,5.92
2023-01-08T07:52:32.504Z,5.90
2023-01-08T07:57:34.299Z,6.00
2023-01-08T08:02:36.112Z,6.03
2023-01-08T08:07:38.020Z,5.98
2023-01-08T08:12:39.677Z,6.09
2023-01-08T08:17:45.796Z,6.08
2023-01-08T08:22:47.586Z,6.13
2023-01-08T08:27:49.392Z,6.16
2023-01-08T08:32:51.245Z,6.16
2023-01-08T08:37:54.134Z,6.06
2023-01-08T08:43:00.759Z,5.99
2023-01-08T08:48:02.458Z,6.09
2023-01-08T08:53:05.981Z,6.10
2023-01-08T08:58:12.535Z,6.11
2023-01-08T09:03:15.275Z,6.14
2023-01-08T09:08:16.973Z,6.05
2023-01-08T09:13:18.935Z,6.08
2023-01-08T09:18:20.526Z,6.09
2023-01-08T09:23:22.123Z,6.17
2023-01-08T09:28:23.907Z,6.19
2023-01-08T09:33:25.732Z,6.24
2023-01-08T09:38:29.736Z,6.26
2023-01-08T09:43:36.465Z,6.29
2023-01-08T09:48:40.467Z,6.34
2023-01-08T09:53:43.798Z,6.25
2023-01-08T09:58:52.505Z,6.32
2023-01-08T10:04:00.390Z,6.32
2023-01-08T10:09:02.028Z,6.35
2023-01-08T10:14:06.486Z,6.32
2023-01-08T10:19:09.922Z,6.36
2023-01-08T10:24:11.773Z,6.38
2023-01-08T10:29:16.063Z,6.44
2023-01-08T10:34:27.192Z,6.30
2023-01-08T10:39:30.930Z,6.33
2023-01-08T10:44:33.496Z,6.35
2023-01-08T10:49:44.500Z,6.37
2023-01-08T10:54:46.220Z,6.32
2023-01-08T10:59:48.113Z,6.45
2023-01-08T11:04:52.004Z,6.46
2023-01-08T11:09:54.953Z,6.64
2023-01-08T11:14:57.559Z,6.72
2023-01-08T11:20:23.227Z,6.69
2023-01-08T11:25:28.663Z,6.67
2023-01-08T11:30:32.574Z,6.77
2023-01-08T11:35:42.366Z,6.76
2023-01-08T11:41:04.310Z,6.72
2023-01-08T11:46:33.680Z,6.82
2023-01-08T11:51:47.147Z,6.90
2023-01-08T11:57:33.270Z,7.03
2023-01-08T12:02:54.726Z,6.97
2023-01-08T12:08:00.043Z,7.09
2023-01-08T12:13:26.748Z,7.20
2023-01-08T12:19:02.400Z,7.17
2023-01-08T12:24:31.509Z,7.22
2023-01-08T12:30:02.570Z,7.17
2023-01-08T12:35:36.698Z,7.01
2023-01-08T12:40:58.340Z,7.06
2023-01-08T12:46:03.413Z,7.17
2023-01-08T12:51:21.033Z,7.20
2023-01-08T12:56:38.957Z,7.29
2023-01-08T13:02:07.990Z,7.30
2023-01-08T13:07:20.393Z,7.15
2023-01-08T13:12:33.251Z,7.21
2023-01-08T13:17:37.592Z,7.13
2023-01-08T13:22:40.715Z,7.15
2023-01-08T13:27:42.591Z,7.12
2023-01-08T13:32:48.551Z,7.04
2023-01-08T13:37:52.488Z,7.00
2023-01-08T13:42:54.563Z,6.93
2023-01-08T13:47:56.973Z,6.94
2023-01-08T13:53:00.906Z,6.90
2023-01-08T13:58:08.167Z,6.86
2023-01-08T14:03:26.148Z,6.81
2023-01-08T14:08:27.746Z,6.76
2023-01-08T14:13:32.128Z,6.70
2023-01-08T14:18:34.364Z,6.77
2023-01-08T14:23:43.051Z,6.70
2023-01-08T14:28:51.062Z,6.64
2023-01-08T14:33:58.387Z,6.58
2023-01-08T14:39:00.176Z,6.42
2023-01-08T14:44:02.622Z,6.42
2023-01-08T14:49:04.306Z,6.39
2023-01-08T14:54:06.988Z,6.26
2023-01-08T14:59:11.913Z,6.27
2023-01-08T15:04:19.352Z,6.30
2023-01-08T15:09:24.032Z,6.25
2023-01-08T15:14:28.031Z,6.21
2023-01-08T15:19:35.693Z,6.29
2023-01-08T15:24:41.710Z,6.29
2023-01-08T15:29:59.847Z,6.23
2023-01-08T15:35:01.777Z,6.13
2023-01-08T15:40:04.490Z,6.00
2023-01-08T15:45:13.141Z,5.88
2023-01-08T15:50:14.874Z,5.81
2023-01-08T15:55:18.643Z,5.73
2023-01-08T16:00:22.528Z,5.64
2023-01-08T16:05:24.499Z,5.50
2023-01-08T16:10:26.223Z,5.40
2023-01-08T16:15:28.741Z,5.33
2023-01-08T16:20:30.579Z,5.23
2023-01-08T16:25:32.259Z,5.11
2023-01-08T16:30:34.575Z,4.94
2023-01-08T16:35:36.249Z,4.94
2023-01-08T16:40:37.867Z,4.91
2023-01-08T16:45:45.486Z,4.93
2023-01-08T16:50:47.838Z,4.91
2023-01-08T17:03:16.247Z,5.04
2023-01-08T17:09:27.808Z,5.08
2023-01-08T17:14:29.516Z,5.12
2023-01-08T17:19:31.333Z,5.18
2023-01-08T17:31:44.267Z,5.25
2023-01-08T17:36:46.007Z,5.24
2023-01-08T17:42:05.966Z,5.23
2023-01-08T17:47:07.615Z,5.23
2023-01-08T17:52:09.907Z,5.26
2023-01-08T17:57:11.871Z,5.28
2023-01-08T18:02:16.046Z,5.29
2023-01-08T18:07:18.256Z,5.29
2023-01-08T18:12:20.454Z,5.26
2023-01-08T18:17:22.530Z,5.25
2023-01-08T18:22:24.555Z,5.20
2023-01-08T18:27:26.331Z,5.16
2023-01-08T18:32:27.973Z,5.09
2023-01-08T18:37:33.305Z,5.06
2023-01-08T18:42:34.914Z,4.97
2023-01-08T18:47:36.573Z,4.81
2023-01-08T18:52:39.663Z,4.69
2023-01-08T18:57:41.632Z,4.63
2023-01-08T19:02:44.067Z,4.57
2023-01-08T19:07:46.009Z,4.49
2023-01-08T19:12:48.271Z,4.38
2023-01-08T19:17:49.851Z,4.33
2023-01-08T19:22:52.686Z,4.22
2023-01-08T19:27:54.267Z,4.16
2023-01-08T19:32:55.980Z,4.15
2023-01-08T19:37:58.015Z,4.02
2023-01-08T19:43:18.338Z,3.87
2023-01-08T19:48:19.998Z,3.76
2023-01-08T19:53:21.625Z,3.73
2023-01-08T19:58:25.276Z,3.66
2023-01-08T20:03:28.195Z,3.56
2023-01-08T20:08:29.807Z,3.50
2023-01-08T20:13:33.936Z,3.42
2023-01-08T20:18:35.805Z,3.35
2023-01-08T20:23:38.840Z,3.22
2023-01-08T20:28:41.806Z,3.09
2023-01-08T20:33:44.614Z,3.02
2023-01-08T20:38:46.705Z,2.96
2023-01-08T20:43:48.973Z,2.91
2023-01-08T20:48:50.589Z,2.80
2023-01-08T20:53:52.356Z,2.77
2023-01-08T20:58:54.281Z,2.74
2023-01-08T21:03:58.068Z,2.68
2023-01-08T21:09:03.173Z,2.58
2023-01-08T21:14:05.712Z,2.40
2023-01-08T21:19:10.258Z,2.12
2023-01-08T21:24:12.898Z,2.11
2023-01-08T21:29:16.889Z,2.11
2023-01-08T21:34:19.546Z,2.09
2023-01-08T21:39:21.195Z,1.97
2023-01-08T21:44:43.239Z,1.80
2023-01-08T21:49:46.148Z,1.76
2023-01-08T21:54:47.823Z,1.76
2023-01-08T21:59:50.988Z,1.77
2023-01-08T22:04:56.249Z,1.82
2023-01-08T22:10:00.449Z,1.79
2023-01-08T22:15:02.086Z,1.77
2023-01-08T22:20:06.698Z,1.67
2023-01-08T22:25:09.217Z,1.70
2023-01-08T22:30:11.334Z,1.74
2023-01-08T22:35:13.389Z,1.77
2023-01-08T22:40:15.204Z,1.81
2023-01-08T22:45:17.144Z,1.81
2023-01-08T22:50:18.876Z,1.81
2023-01-08T22:55:20.645Z,1.82
2023-01-08T23:00:22.331Z,1.86
2023-01-08T23:05:23.963Z,1.87
2023-01-08T23:10:25.905Z,1.93
2023-01-08T23:15:27.627Z,1.93
2023-01-08T23:20:29.248Z,2.00
2023-01-08T23:25:32.058Z,2.04
2023-01-08T23:30:33.847Z,2.11
2023-01-08T23:35:35.475Z,2.07
2023-01-08T23:40:37.119Z,2.10
2023-01-08T23:45:39.241Z,2.12
2023-01-08T23:50:40.905Z,2.04
2023-01-08T23:55:42.700Z,2.10
